createdAt,value
2024-02-29T00:01:37.521Z,34.22
2024-02-29T00:04:39.424Z,27.67
2024-02-29T00:07:41.698Z,34.97
2024-02-29T00:10:43.986Z,36.53
2024-02-29T00:13:46.063Z,36.17
2024-02-29T00:16:49.396Z,29.25
2024-02-29T00:19:51.165Z,31.70
2024-02-29T00:22:52.950Z,30.85
2024-02-29T00:25:54.721Z,29.15
2024-02-29T00:28:56.484Z,32.58
2024-02-29T00:32:02.344Z,29.92
2024-02-29T00:35:06.008Z,36.60
2024-02-29T00:38:07.769Z,32.00
2024-02-29T00:41:09.668Z,33.88
2024-02-29T00:44:11.920Z,29.75
2024-02-29T00:47:15.107Z,29.95
2024-02-29T00:50:16.877Z,26.50
2024-02-29T00:53:18.829Z,33.05
2024-02-29T00:56:20.631Z,31.02
2024-02-29T00:59:22.819Z,28.52
2024-02-29T01:02:26.081Z,31.05
2024-02-29T01:05:28.797Z,32.40
2024-02-29T01:08:30.562Z,34.08
2024-02-29T01:11:32.834Z,28.65
2024-02-29T01:14:34.553Z,28.48
2024-02-29T01:17:38.505Z,28.83
2024-02-29T01:20:40.221Z,33.58
2024-02-29T01:23:42.749Z,33.28
2024-02-29T01:26:44.750Z,37.67
2024-02-29T01:29:46.790Z,31.70
2024-02-29T01:32:50.026Z,30.95
2024-02-29T01:35:51.805Z,32.70
2024-02-29T01:38:53.798Z,30.38
2024-02-29T01:41:57.190Z,33.13
2024-02-29T01:44:58.941Z,32.38
2024-02-29T01:48:03.186Z,38.17
2024-02-29T01:51:05.588Z,33.60
2024-02-29T01:54:07.389Z,36.53
2024-02-29T01:57:10.000Z,36.40
2024-02-29T02:00:12.583Z,35.45
2024-02-29T02:03:16.417Z,37.70
2024-02-29T02:06:18.209Z,36.45
2024-02-29T02:09:20.673Z,36.33
2024-02-29T02:12:22.379Z,34.60
2024-02-29T02:15:24.153Z,33.90
2024-02-29T02:18:28.041Z,34.25
2024-02-29T02:21:31.364Z,34.78
2024-02-29T02:24:34.893Z,34.95
2024-02-29T02:27:38.119Z,35.17
2024-02-29T02:30:39.869Z,39.83
2024-02-29T02:33:42.667Z,43.17
2024-02-29T02:36:45.930Z,38.17
2024-02-29T02:39:48.668Z,41.35
2024-02-29T02:42:50.479Z,40.83
2024-02-29T02:45:52.305Z,35.78
2024-02-29T02:48:54.596Z,39.05
2024-02-29T02:51:57.876Z,31.88
2024-02-29T02:55:00.569Z,40.40
2024-02-29T02:58:02.438Z,30.13
2024-02-29T03:01:04.466Z,36.72
2024-02-29T03:04:06.290Z,32.80
2024-02-29T03:07:09.523Z,36.90
2024-02-29T03:10:12.165Z,33.85
2024-02-29T03:13:14.035Z,36.83
2024-02-29T03:16:21.338Z,33.85
2024-02-29T03:19:23.518Z,34.60
2024-02-29T03:22:26.751Z,29.83
2024-02-29T03:25:28.581Z,36.42
2024-02-29T03:28:30.374Z,30.30
2024-02-29T03:31:32.467Z,32.22
2024-02-29T03:34:34.208Z,31.40
2024-02-29T03:37:38.223Z,28.58
2024-02-29T03:40:40.590Z,32.95
2024-02-29T03:43:42.515Z,41.22
2024-02-29T03:46:44.373Z,32.67
2024-02-29T03:49:46.153Z,31.92
2024-02-29T03:52:49.862Z,37.53
2024-02-29T03:55:51.604Z,32.03
2024-02-29T03:58:54.418Z,35.55
2024-02-29T04:01:57.124Z,29.77
2024-02-29T04:04:59.377Z,37.05
2024-02-29T04:08:05.182Z,33.03
2024-02-29T04:11:06.970Z,32.55
2024-02-29T04:14:10.573Z,24.27
2024-02-29T04:17:12.365Z,32.25
2024-02-29T04:20:14.078Z,34.50
2024-02-29T04:23:17.801Z,37.58
2024-02-29T04:26:19.943Z,34.53
2024-02-29T04:29:22.353Z,33.10
2024-02-29T04:32:24.095Z,35.20
2024-02-29T04:35:26.329Z,38.30
2024-02-29T04:38:29.562Z,33.95
2024-02-29T04:41:31.487Z,33.53
2024-02-29T04:44:33.239Z,32.70
2024-02-29T04:47:35.921Z,25.52
2024-02-29T04:50:38.230Z,31.73
2024-02-29T04:53:41.375Z,28.42
2024-02-29T04:56:43.219Z,34.38
2024-02-29T04:59:45.280Z,33.83
2024-02-29T05:02:47.020Z,36.95
2024-02-29T05:05:49.264Z,39.60
2024-02-29T05:08:52.521Z,32.28
2024-02-29T05:11:55.236Z,30.42
2024-02-29T05:14:57.258Z,33.28
2024-02-29T05:17:59.300Z,40.22
2024-02-29T05:21:01.162Z,30.48
2024-02-29T05:24:04.715Z,31.90
2024-02-29T05:27:06.530Z,29.50
2024-02-29T05:30:08.649Z,30.50
2024-02-29T05:33:11.237Z,32.88
2024-02-29T05:36:15.503Z,34.55
2024-02-29T05:39:18.942Z,28.67
2024-02-29T05:42:22.679Z,30.92
2024-02-29T05:45:25.129Z,35.50
2024-02-29T05:48:27.129Z,38.17
2024-02-29T05:51:28.800Z,36.15
2024-02-29T05:54:32.768Z,30.85
2024-02-29T05:57:36.000Z,37.22
2024-02-29T06:00:38.016Z,36.50
2024-02-29T06:03:39.920Z,37.40
2024-02-29T06:06:41.755Z,43.47
2024-02-29T06:09:45.945Z,45.10
2024-02-29T06:12:47.974Z,40.90
2024-02-29T06:15:50.089Z,42.25
2024-02-29T06:18:51.981Z,48.53
2024-02-29T06:21:53.854Z,37.15
2024-02-29T06:24:58.073Z,38.33
2024-02-29T06:27:59.937Z,38.33
2024-02-29T06:31:02.570Z,38.70
2024-02-29T06:34:04.535Z,31.65
2024-02-29T06:37:08.060Z,27.27
2024-02-29T06:40:13.035Z,41.55
2024-02-29T06:43:15.366Z,40.95
2024-02-29T06:46:18.434Z,38.38
2024-02-29T06:49:21.694Z,43.40
2024-02-29T06:52:23.581Z,40.72
2024-02-29T06:55:26.815Z,38.95
2024-02-29T06:58:29.397Z,36.67
2024-02-29T07:01:34.085Z,38.20
2024-02-29T07:04:35.978Z,57.03
2024-02-29T07:07:37.778Z,71.15
2024-02-29T07:10:42.523Z,68.18
2024-02-29T07:13:44.261Z,68.28
2024-02-29T07:16:47.918Z,75.03
2024-02-29T07:19:49.955Z,77.57
2024-02-29T07:22:52.926Z,78.28
2024-02-29T07:25:56.319Z,81.57
2024-02-29T07:28:58.808Z,75.78
2024-02-29T07:32:00.557Z,61.58
2024-02-29T07:35:02.999Z,52.63
2024-02-29T07:38:05.137Z,49.88
2024-02-29T07:41:08.325Z,42.90
2024-02-29T07:44:10.030Z,47.47
2024-02-29T07:47:11.829Z,44.42
2024-02-29T07:50:13.666Z,39.83
2024-02-29T07:53:15.495Z,37.90
2024-02-29T07:56:19.557Z,35.05
2024-02-29T07:59:23.192Z,31.27
2024-02-29T08:02:25.070Z,33.17
2024-02-29T08:05:27.969Z,30.50
2024-02-29T08:08:29.810Z,31.15
2024-02-29T08:11:33.069Z,28.25
2024-02-29T08:14:35.814Z,32.15
2024-02-29T08:17:37.661Z,29.40
2024-02-29T08:20:39.778Z,35.72
2024-02-29T08:23:41.583Z,30.92
2024-02-29T08:26:44.889Z,31.35
2024-02-29T08:29:46.875Z,26.98
2024-02-29T08:32:50.076Z,31.60
2024-02-29T08:35:52.825Z,29.83
2024-02-29T08:38:54.495Z,30.05
2024-02-29T08:41:58.175Z,32.55
2024-02-29T08:44:59.972Z,32.13
2024-02-29T08:48:01.896Z,36.85
2024-02-29T08:51:05.166Z,40.42
2024-02-29T08:54:09.759Z,35.05
2024-02-29T08:57:14.147Z,41.05
2024-02-29T09:00:18.052Z,37.30
2024-02-29T09:03:19.855Z,33.63
2024-02-29T09:06:21.656Z,34.13
2024-02-29T09:09:23.597Z,35.08
2024-02-29T09:12:26.993Z,28.88
2024-02-29T09:15:29.769Z,31.95
2024-02-29T09:18:31.687Z,39.50
2024-02-29T09:21:33.719Z,38.75
2024-02-29T09:24:35.939Z,39.75
2024-02-29T09:27:39.667Z,31.13
2024-02-29T09:30:41.582Z,32.47
2024-02-29T09:33:43.892Z,35.85
2024-02-29T09:36:47.017Z,29.35
2024-02-29T09:39:48.869Z,35.53
2024-02-29T09:42:53.027Z,33.47
2024-02-29T09:45:55.225Z,30.42
2024-02-29T09:48:59.012Z,33.28
2024-02-29T09:52:01.106Z,26.23
2024-02-29T09:55:06.320Z,27.60
2024-02-29T09:58:09.695Z,28.17
2024-02-29T10:01:12.767Z,23.27
2024-02-29T10:04:14.706Z,22.45
2024-02-29T10:07:16.624Z,28.45
2024-02-29T10:10:18.647Z,27.38
2024-02-29T10:13:22.081Z,27.88
2024-02-29T10:16:27.154Z,32.15
2024-02-29T10:19:30.764Z,31.65
2024-02-29T10:22:32.606Z,30.92
2024-02-29T10:25:34.649Z,29.52
2024-02-29T10:28:37.921Z,30.42
2024-02-29T10:31:40.471Z,27.17
2024-02-29T10:34:42.357Z,25.77
2024-02-29T10:37:44.743Z,30.63
2024-02-29T10:40:48.876Z,26.17
2024-02-29T10:43:52.258Z,29.05
2024-02-29T10:46:57.297Z,29.65
2024-02-29T10:50:04.693Z,26.02
2024-02-29T10:53:13.357Z,27.27
2024-02-29T10:56:21.072Z,27.00
2024-02-29T10:59:25.024Z,25.40
2024-02-29T11:02:27.290Z,31.40
2024-02-29T11:05:29.446Z,35.67
2024-02-29T11:08:31.824Z,34.53
2024-02-29T11:11:34.845Z,39.67
2024-02-29T11:14:38.310Z,31.27
2024-02-29T11:17:42.826Z,32.13
2024-02-29T11:20:45.347Z,31.70
2024-02-29T11:23:47.192Z,27.02
2024-02-29T11:26:55.232Z,32.45
2024-02-29T11:30:01.721Z,33.20
2024-02-29T11:33:10.826Z,22.98
2024-02-29T11:36:13.219Z,24.17
2024-02-29T11:39:16.313Z,28.92
2024-02-29T11:42:18.409Z,29.20
2024-02-29T11:45:23.517Z,23.63
2024-02-29T11:48:27.785Z,24.42
2024-02-29T11:51:29.826Z,27.02
2024-02-29T11:54:32.332Z,27.88
2024-02-29T11:57:34.281Z,26.30
2024-02-29T12:00:37.580Z,23.10
2024-02-29T12:03:41.108Z,20.95
2024-02-29T12:06:45.342Z,22.70
2024-02-29T12:09:47.453Z,24.80
2024-02-29T12:12:50.572Z,22.88
2024-02-29T12:15:55.558Z,20.13
2024-02-29T12:18:58.283Z,20.05
2024-02-29T12:22:00.115Z,16.92
2024-02-29T12:25:12.544Z,25.38
2024-02-29T12:28:14.743Z,22.70
2024-02-29T12:31:19.342Z,22.17
2024-02-29T12:34:21.215Z,22.00
2024-02-29T12:37:23.569Z,18.50
2024-02-29T12:40:27.091Z,21.08
2024-02-29T12:43:29.651Z,24.95
2024-02-29T12:46:32.978Z,23.40
2024-02-29T12:49:35.141Z,21.70
2024-02-29T12:52:37.230Z,24.40
2024-02-29T12:55:39.097Z,19.27
2024-02-29T12:58:42.334Z,20.35
2024-02-29T13:01:46.230Z,19.83
2024-02-29T13:04:48.156Z,17.15
2024-02-29T13:07:50.588Z,14.18
2024-02-29T13:10:53.087Z,17.77
2024-02-29T13:13:54.876Z,17.52
2024-02-29T13:16:58.152Z,16.33
2024-02-29T13:20:00.234Z,11.23
2024-02-29T13:23:02.224Z,15.57
2024-02-29T13:26:05.344Z,17.45
2024-02-29T13:29:07.268Z,14.15
2024-02-29T13:32:10.538Z,15.63
2024-02-29T13:35:13.102Z,12.43
2024-02-29T13:38:14.931Z,13.70
2024-02-29T13:41:17.056Z,10.68
2024-02-29T13:44:19.998Z,11.48
2024-02-29T13:47:23.329Z,14.05
2024-02-29T13:50:25.936Z,12.80
2024-02-29T13:53:27.691Z,18.55
2024-02-29T13:56:29.512Z,13.32
2024-02-29T13:59:31.992Z,11.68
2024-02-29T14:02:35.196Z,12.38
2024-02-29T14:05:37.975Z,13.63
2024-02-29T14:08:40.223Z,11.43
2024-02-29T14:11:43.782Z,12.65
2024-02-29T14:14:46.572Z,21.35
2024-02-29T14:17:49.908Z,10.50
2024-02-29T14:20:51.717Z,12.82
2024-02-29T14:23:53.910Z,13.68
2024-02-29T14:26:55.803Z,16.50
2024-02-29T14:30:00.857Z,12.75
2024-02-29T14:33:05.328Z,17.10
2024-02-29T14:36:13.018Z,15.10
2024-02-29T14:39:15.358Z,15.18
2024-02-29T14:42:18.392Z,10.98
2024-02-29T14:45:20.991Z,10.43
2024-02-29T14:48:24.237Z,13.48
2024-02-29T14:51:26.899Z,15.65
2024-02-29T14:54:28.694Z,15.73
2024-02-29T14:57:30.840Z,14.82
2024-02-29T15:00:32.680Z,11.45
2024-02-29T15:03:37.152Z,16.92
2024-02-29T15:06:41.267Z,15.73
2024-02-29T15:09:43.266Z,15.20
2024-02-29T15:12:46.064Z,14.57
2024-02-29T15:15:47.923Z,15.35
2024-02-29T15:18:51.239Z,15.43
2024-02-29T15:21:54.241Z,15.10
2024-02-29T15:24:56.111Z,12.80
2024-02-29T15:28:00.233Z,13.68
2024-02-29T15:31:02.070Z,10.68
2024-02-29T15:34:05.245Z,14.75
2024-02-29T15:37:08.139Z,13.60
2024-02-29T15:40:12.052Z,14.50
2024-02-29T15:43:14.750Z,13.32
2024-02-29T15:46:16.686Z,14.60
2024-02-29T15:49:20.260Z,15.38
2024-02-29T15:52:22.186Z,17.33
2024-02-29T15:55:24.758Z,16.42
2024-02-29T15:58:26.564Z,16.92
2024-02-29T16:01:28.598Z,19.05
2024-02-29T16:04:32.630Z,16.80
2024-02-29T16:07:34.676Z,16.92
2024-02-29T16:10:36.412Z,17.98
2024-02-29T16:13:39.354Z,17.92
2024-02-29T16:16:41.142Z,13.75
2024-02-29T16:19:46.703Z,16.17
2024-02-29T16:22:49.146Z,14.13
2024-02-29T16:25:52.957Z,15.23
2024-02-29T16:28:55.349Z,22.50
2024-02-29T16:31:57.093Z,19.08
2024-02-29T16:35:00.494Z,18.48
2024-02-29T16:38:02.367Z,17.30
2024-02-29T16:41:04.750Z,16.98
2024-02-29T16:44:06.622Z,21.33
2024-02-29T16:47:08.545Z,16.25
2024-02-29T16:50:12.527Z,19.10
2024-02-29T16:53:14.363Z,16.73
2024-02-29T16:56:16.508Z,15.57
2024-02-29T16:59:18.253Z,18.13
2024-02-29T17:02:20.140Z,19.98
2024-02-29T17:05:24.319Z,20.33
2024-02-29T17:08:25.988Z,16.23
2024-02-29T17:11:27.802Z,18.58
2024-02-29T17:14:29.565Z,17.67
2024-02-29T17:17:31.520Z,20.13
2024-02-29T17:20:34.770Z,15.05
2024-02-29T17:23:37.443Z,20.75
2024-02-29T17:26:39.230Z,19.50
2024-02-29T17:29:43.503Z,17.77
2024-02-29T17:32:48.203Z,22.13
2024-02-29T17:35:51.384Z,20.80
2024-02-29T17:38:53.109Z,25.17
2024-02-29T17:41:55.400Z,23.67
2024-02-29T17:44:57.222Z,29.23
2024-02-29T17:47:59.409Z,24.30
2024-02-29T17:51:02.635Z,26.50
2024-02-29T17:54:04.411Z,22.05
2024-02-29T17:57:06.407Z,28.40
2024-02-29T18:00:09.170Z,24.70
2024-02-29T18:03:11.417Z,28.08
2024-02-29T18:06:14.995Z,23.27
2024-02-29T18:09:17.084Z,29.33
2024-02-29T18:12:19.385Z,27.83
2024-02-29T18:15:21.340Z,29.83
2024-02-29T18:18:23.110Z,30.08
2024-02-29T18:21:26.222Z,27.02
2024-02-29T18:24:29.411Z,29.33
2024-02-29T18:27:31.291Z,26.40
2024-02-29T18:30:33.132Z,35.38
2024-02-29T18:33:35.473Z,27.35
2024-02-29T18:36:39.035Z,32.88
2024-02-29T18:39:41.508Z,32.35
2024-02-29T18:42:43.942Z,35.03
2024-02-29T18:45:53.279Z,38.95
2024-02-29T18:48:59.598Z,35.70
2024-02-29T18:52:03.809Z,35.03
2024-02-29T18:55:09.099Z,35.45
2024-02-29T18:58:11.030Z,32.33
2024-02-29T19:01:13.314Z,35.78
2024-02-29T19:04:16.446Z,32.33
2024-02-29T19:07:21.797Z,37.88
2024-02-29T19:10:25.865Z,34.25
2024-02-29T19:13:29.527Z,33.88
2024-02-29T19:16:32.271Z,30.00
2024-02-29T19:19:34.342Z,32.45
2024-02-29T19:22:38.441Z,36.25
2024-02-29T19:25:44.085Z,35.17
2024-02-29T19:28:45.879Z,30.83
2024-02-29T19:31:47.905Z,32.08
2024-02-29T19:34:50.185Z,35.13
2024-02-29T19:37:54.354Z,32.55
2024-02-29T19:40:57.127Z,38.38
2024-02-29T19:43:59.000Z,40.13
2024-02-29T19:47:02.081Z,32.47
2024-02-29T19:50:04.099Z,30.95
2024-02-29T19:53:07.491Z,33.30
2024-02-29T19:56:10.869Z,32.65
2024-02-29T19:59:12.712Z,35.95
2024-02-29T20:02:15.238Z,36.78
2024-02-29T20:05:17.048Z,36.00
2024-02-29T20:08:20.146Z,40.28
2024-02-29T20:11:22.162Z,37.03
2024-02-29T20:14:24.094Z,35.80
2024-02-29T20:17:25.853Z,37.42
2024-02-29T20:20:28.013Z,35.05
2024-02-29T20:23:31.239Z,36.20
2024-02-29T20:26:34.116Z,32.95
2024-02-29T20:29:35.931Z,33.17
2024-02-29T20:32:40.381Z,37.13
2024-02-29T20:35:43.114Z,34.35
2024-02-29T20:38:46.912Z,31.80
2024-02-29T20:41:49.001Z,33.20
2024-02-29T20:44:52.341Z,36.80
2024-02-29T20:47:54.230Z,38.65
2024-02-29T20:50:56.975Z,34.95
2024-02-29T20:54:00.285Z,36.58
2024-02-29T20:57:03.170Z,34.35
2024-02-29T21:00:05.685Z,36.58
2024-02-29T21:03:09.172Z,38.83
2024-02-29T21:06:12.022Z,36.58
2024-02-29T21:09:15.236Z,37.08
2024-02-29T21:12:17.000Z,30.85
2024-02-29T21:15:18.853Z,32.33
2024-02-29T21:18:20.682Z,33.33
2024-02-29T21:21:22.859Z,31.25
2024-02-29T21:24:26.246Z,36.90
2024-02-29T21:27:28.880Z,30.33
2024-02-29T21:30:30.723Z,36.97
2024-02-29T21:33:32.861Z,34.90
2024-02-29T21:36:34.649Z,31.05
2024-02-29T21:39:44.427Z,42.47
2024-02-29T21:42:48.804Z,32.92
2024-02-29T21:45:50.624Z,33.78
2024-02-29T21:48:52.395Z,31.92
2024-02-29T21:51:54.788Z,35.22
2024-02-29T21:54:58.025Z,36.60
2024-02-29T21:58:01.786Z,33.90
2024-02-29T22:01:03.978Z,47.80
2024-02-29T22:04:05.831Z,36.55
2024-02-29T22:07:08.136Z,36.00
2024-02-29T22:10:11.719Z,31.13
2024-02-29T22:13:13.651Z,35.13
2024-02-29T22:16:15.765Z,40.33
2024-02-29T22:19:17.570Z,38.53
2024-02-29T22:22:19.804Z,33.55
2024-02-29T22:25:23.172Z,38.05
2024-02-29T22:28:25.159Z,36.38
2024-02-29T22:31:29.190Z,41.55
2024-02-29T22:34:31.103Z,40.78
2024-02-29T22:37:34.457Z,35.92
2024-02-29T22:40:37.749Z,40.53
2024-02-29T22:43:39.724Z,41.30
2024-02-29T22:46:41.493Z,37.28
2024-02-29T22:49:44.066Z,40.25
2024-02-29T22:52:45.773Z,38.88
2024-02-29T22:55:51.329Z,49.55
2024-02-29T22:58:53.704Z,44.83
2024-02-29T23:01:56.193Z,39.15
2024-02-29T23:04:58.015Z,43.67
2024-02-29T23:07:59.731Z,34.20
2024-02-29T23:11:04.285Z,43.83
2024-02-29T23:14:06.595Z,40.53
2024-02-29T23:17:08.363Z,36.40
2024-02-29T23:20:13.637Z,46.90
2024-02-29T23:23:15.423Z,45.72
2024-02-29T23:26:18.757Z,35.08
2024-02-29T23:29:20.944Z,44.67
2024-02-29T23:32:23.570Z,48.30
2024-02-29T23:35:25.295Z,42.58
2024-02-29T23:38:27.053Z,38.58
2024-02-29T23:41:30.978Z,43.78
2024-02-29T23:44:32.715Z,42.60
2024-02-29T23:47:34.540Z,47.60
2024-02-29T23:50:36.332Z,51.53
2024-02-29T23:53:38.541Z,48.47
2024-02-29T23:56:41.930Z,42.58
2024-02-29T23:59:44.484Z,46.05
